Terminal Aerodrome Forecast
Issued by NWS

Home | Current Version | Previous Version | Text Only | Print | Product List | Glossary On
Versions: 1 2 3 4 5 6 7 8 9 10 11 12 13 14 15 16 17 18 19 20 21 22 23 24 25 26 27 28 29 30 31
000
FTUS43 KGLD 011007 AAA
TAFMCK
TAF AMD
KMCK 011007Z 0110/0206 33022G30KT 2SM -SN SCT020 OVC080
     FM011100 34020G30KT P6SM FEW028 OVC080
     FM011700 33020G30KT P6SM SCT020 BKN050
     FM020000 31008KT P6SM FEW050=

USA.gov is the U.S. government's official web portal to all federal, state and local government web resources and services.